OIBS  Sirri Island Airport

Add Bookmark

Iran

Status IATA
Operational SXI
Latitude Longitude
25° 54' 32" N 54° 32' 21" E
25.908899 54.539398
Local (DST + 5) UTC (GMT + 4)
Oct 2, 2014 01:48 Oct 1, 2014 22:18
Sunrise-Sunset Local UTC
Begin Civil Twilight 05:20 01:50
Sunrise 05:43 02:13
Sunset 05:38 14:08
End Civil Twilight 06:01 14:31

Current Weather

METAR Observed VFR
OIBS 011500Z 27010KT CAVOK 33/25 Q1009 Wed, Oct 1, 2014 @ 15:00 UTC
(7 Hours, 18 Minutes ago)
Visual Flight Rules
Wind Visibility Clouds Conditions
270° at 10 knots (19 kph) 10 km or more
  • Clear skies
  • No significant weather
Temperatures Readings Precipitation
Current Temp 33°C (91°F)
Dewpoint 25°C (77°F)
Heat Index 40°C (104°F)
Humidity 63%
Altimeter 29.79"Hg
Sea Level Pressure 1009mb
Field Elevation 45.93'
None Recorded

Additional weather within a 92.6km radius of OIBS

Map ICAO Location
OIBA 49.4km E (094°)
OIBL 74.8km N (022°)
OIBK 88.3km N (321°)

24 Hour Weather History

Loading
-

24 Hour Weather Graphs

Loading
-

CheckWX.com is intended as a tool to help pilots better visualize weather data. It is not intended as a substitute for an official weather briefing obtained from a Flight Service Station. CheckWX.com does not meet the FAA requirements for an official pre-flight weather briefing. Therefore, it's important that pilots still call and obtain an official FSS pre-flight weather briefing.